Latest Weather Observations for Hay Airport

IDN60801

Issued at 3:32 pm EDT Saturday 22 February 2020 (issued every 10 minutes, with the page automatically refreshed every 10 minutes)

About weather observations | Map of weather stations | Latest weather observations for NSW | Other Formats
Station Details ID: 075019 Name: HAY AIRPORT AWS Lat: -34.54 Lon: 144.83 Height: 92.0 m
Data from the previous 72 hours. | See also: Recent months at Hay Airport
Date/Time
EDT
Temp
°C
App
Temp
°C
Dew
Point
°C
Rel
Hum
%
Delta-T
°C
Wind Press
QNH
hPa
Press
MSL
hPa
Rain since
9am
mm
Dir  Spd
km/h
Gust
km/h
Spd
kts
Gust
kts
22/03:30pm 30.7 28.2 3.7 18 13.8 ESE 6 13 3 7 1017.7 1017.3 0.0
22/03:00pm 30.1 26.7 4.0 19 13.4 W 11 20 6 11 1018.2 1017.8 0.0
22/02:30pm 29.7 27.3 5.1 21 12.8 SSE 7 15 4 8 1018.7 1018.3 0.0
22/02:00pm 28.5 26.9 4.7 22 12.2 SSE 2 9 1 5 1019.1 1018.7 0.0
22/01:30pm 28.2 25.0 5.1 23 12.0 NW 11 19 6 10 1019.6 1019.2 0.0
22/01:00pm 27.9 26.2 6.1 25 11.4 ESE 4 9 2 5 1020.0 1019.6 0.0
22/12:30pm 27.0 26.3 6.9 28 10.7 CALM 0 7 0 4 1020.4 1020.0 0.0
22/12:00pm 24.6 23.6 7.3 33 9.1 NNE 2 9 1 5 1020.6 1020.2 0.0
22/11:30am 23.2 21.5 7.7 37 8.2 SE 6 9 3 5 1020.9 1020.5 0.0
22/11:00am 21.3 19.6 8.2 43 6.9 SSE 7 13 4 7 1021.0 1020.6 0.0
22/10:30am 19.8 17.6 7.9 46 6.2 SE 9 15 5 8 1020.9 1020.5 0.0
22/10:00am 18.7 15.8 8.1 50 5.4 SSE 13 17 7 9 1020.8 1020.4 0.0
22/09:30am 16.8 13.7 7.4 54 4.7 SSE 13 19 7 10 1020.9 1020.5 0.0
22/09:00am 15.8 11.9 7.3 57 4.2 SSE 17 20 9 11 1020.8 1020.4 0.0
22/08:30am 14.6 11.1 7.2 61 3.6 S 15 19 8 10 1020.4 1020.0 0.0
22/08:00am 13.1 9.9 6.9 66 3.0 SSW 13 19 7 10 1020.3 1019.9 0.0
22/07:30am 11.8 9.3 6.7 71 2.4 SSW 9 13 5 7 1020.1 1019.7 0.0
22/07:00am 11.3 9.1 6.4 72 2.3 SSW 7 11 4 6 1019.6 1019.2 0.0
22/06:30am 11.9 9.1 6.8 71 2.4 SSW 11 13 6 7 1019.3 1018.9 0.0
22/06:00am 12.6 9.8 7.1 69 2.7 S 11 15 6 8 1019.3 1018.9 0.0
22/05:30am 13.2 9.7 7.2 67 2.9 S 15 19 8 10 1019.2 1018.8 0.0
22/05:00am 13.5 9.6 7.3 66 3.0 S 17 20 9 11 1018.9 1018.5 0.0
22/04:30am 13.9 10.4 7.4 65 3.2 S 15 20 8 11 1018.8 1018.4 0.0
22/04:00am 14.3 10.5 7.4 63 3.4 S 17 20 9 11 1018.8 1018.4 0.0
22/03:30am 14.8 10.4 7.4 61 3.7 S 20 26 11 14 1018.7 1018.3 0.0
22/03:00am 15.2 10.8 7.3 59 3.9 S 20 26 11 14 1018.7 1018.3 0.0
22/02:30am 15.7 11.2 7.0 56 4.3 S 20 26 11 14 1018.8 1018.4 0.0
22/02:00am 16.3 11.0 7.0 54 4.6 S 24 30 13 16 1018.8 1018.4 0.0
22/01:30am 16.9 12.4 7.0 52 4.9 S 20 30 11 16 1018.9 1018.5 0.0
22/01:00am 17.5 11.6 7.3 51 5.1 S 28 37 15 20 1018.8 1018.4 0.0
22/12:30am 18.3 11.5 7.1 48 5.6 S 32 41 17 22 1018.6 1018.2 0.0
22/12:00am 19.1 13.1 7.2 46 6.0 S 28 39 15 21 1018.4 1018.0 0.0
 
Date/Time
EDT
Temp
°C
App
Temp
°C
Dew
Point
°C
Rel
Hum
%
Delta-T
°C
Wind Press
QNH
hPa
Press
MSL
hPa
Rain since
9am
mm
Dir  Spd
km/h
Gust
km/h
Spd
kts
Gust
kts
21/11:30pm 19.9 14.3 7.3 44 6.4 S 26 35 14 19 1018.2 1017.8 0.0
21/11:00pm 20.7 15.1 7.0 41 7.0 S 26 35 14 19 1017.8 1017.4 0.0
21/10:30pm 21.3 17.0 6.8 39 7.4 S 19 26 10 14 1017.6 1017.2 0.0
21/10:00pm 22.3 16.9 6.5 36 8.1 S 24 30 13 16 1017.2 1016.8 0.0
21/09:30pm 23.1 17.4 6.8 35 8.4 S 26 35 14 19 1016.9 1016.5 0.0
21/09:00pm 24.2 19.1 6.0 31 9.3 S 22 30 12 16 1016.4 1016.0 0.0
21/08:30pm 25.0 19.7 5.2 28 10.1 S 22 30 12 16 1016.0 1015.6 0.0
21/08:00pm 25.8 20.1 4.9 26 10.6 S 24 33 13 18 1015.6 1015.1 0.0
21/07:30pm 26.7 20.5 4.5 24 11.3 S 26 33 14 18 1015.3 1014.8 0.0
21/07:00pm 27.4 21.6 4.5 23 11.7 S 24 32 13 17 1015.1 1014.6 0.0
21/06:30pm 28.4 22.1 4.0 21 12.4 S 26 35 14 19 1014.7 1014.2 0.0
21/06:00pm 28.5 21.5 1.9 18 13.0 SSW 28 41 15 22 1014.6 1014.1 0.0
21/05:30pm 28.8 23.1 2.9 19 13.0 SSW 22 33 12 18 1014.5 1014.0 0.0
21/05:00pm 28.7 23.4 2.8 19 12.9 SSW 20 33 11 18 1014.6 1014.1 0.0
21/04:30pm 28.4 22.0 3.3 20 12.6 SSW 26 46 14 25 1014.6 1014.1 0.0
21/04:22pm 28.9 23.0 3.7 20 12.8 SW 24 46 13 25 1014.6 1014.1 0.0
21/04:00pm 28.6 23.5 4.2 21 12.5 SSW 20 30 11 16 1014.9 1014.4 0.0
21/03:30pm 28.2 22.9 5.1 23 12.0 SSW 22 37 12 20 1015.4 1014.9 0.0
21/03:00pm 27.9 23.4 6.1 25 11.4 SSW 19 30 10 16 1015.8 1015.4 0.0
21/02:30pm 27.7 23.0 5.9 25 11.4 SSW 20 35 11 19 1016.2 1015.8 0.0
21/02:00pm 26.5 22.2 7.0 29 10.3 SW 19 39 10 21 1016.5 1016.1 0.0
21/01:30pm 24.8 20.5 7.0 32 9.3 SW 19 32 10 17 1016.9 1016.5 0.0
21/01:00pm 23.8 19.9 7.0 34 8.7 SSW 17 30 9 16 1017.1 1016.7 0.0
21/12:30pm 23.1 18.7 7.2 36 8.3 S 20 32 11 17 1017.3 1016.9 0.0
21/12:00pm 22.1 17.7 7.5 39 7.6 S 20 32 11 17 1017.5 1017.1 0.0
21/11:30am 20.8 16.4 7.4 42 6.9 SSW 20 32 11 17 1017.6 1017.2 0.0
21/11:00am 19.9 14.5 7.9 46 6.2 SSW 26 37 14 20 1017.7 1017.3 0.0
21/10:30am 18.9 14.3 8.3 50 5.5 SSW 22 32 12 17 1017.7 1017.3 0.0
21/10:00am 17.5 12.9 8.1 54 4.8 SSW 22 30 12 16 1017.5 1017.1 0.0
21/09:30am 17.6 12.8 8.7 56 4.6 SSW 24 35 13 19 1017.4 1017.0 0.0
21/09:00am 15.9 11.8 8.6 62 3.7 SSW 20 26 11 14 1017.2 1016.8 0.0
21/08:30am 15.4 10.1 8.6 64 3.5 SSW 26 32 14 17 1017.0 1016.6 0.0
21/08:00am 15.4 11.6 8.9 65 3.3 SSW 19 24 10 13 1016.9 1016.5 0.0
21/07:30am 14.6 11.2 9.0 69 2.9 S 17 24 9 13 1016.5 1016.1 0.0
21/07:00am 14.6 10.5 8.8 68 3.0 S 20 26 11 14 1016.2 1015.8 0.0
21/06:30am 14.9 10.5 8.8 67 3.1 S 22 30 12 16 1016.0 1015.6 0.0
21/06:00am 15.0 11.0 8.9 67 3.1 SSW 20 28 11 15 1015.7 1015.3 0.0
21/05:30am 15.1 11.2 8.8 66 3.2 S 19 24 10 13 1015.3 1014.8 0.0
21/05:00am 15.1 11.2 8.6 65 3.3 S 19 24 10 13 1014.9 1014.4 0.0
21/04:30am 15.2 11.2 8.4 64 3.4 S 19 26 10 14 1014.7 1014.2 0.0
21/04:00am 15.2 11.2 8.2 63 3.5 S 19 26 10 14 1014.6 1014.1 0.0
21/03:30am 15.1 11.4 7.9 62 3.6 S 17 20 9 11 1014.6 1014.1 0.0
21/03:00am 14.7 12.2 6.5 58 4.0 S 9 11 5 6 1014.9 1014.4 0.0
21/02:30am 15.6 12.7 6.3 54 4.5 S 11 15 6 8 1014.8 1014.3 0.0
21/02:00am 16.3 12.9 5.9 50 5.0 S 13 17 7 9 1014.5 1014.0 0.0
21/01:30am 17.1 13.4 6.3 49 5.3 SSE 15 19 8 10 1014.7 1014.2 0.0
21/01:00am 18.0 13.9 6.2 46 5.8 SSE 17 20 9 11 1014.8 1014.3 0.0
21/12:30am 18.5 14.2 5.4 42 6.4 SSE 17 20 9 11 1014.8 1014.3 0.0
21/12:00am 18.7 14.5 3.7 37 7.1 S 15 19 8 10 1014.6 1014.1 0.0
 
Date/Time
EDT
Temp
°C
App
Temp
°C
Dew
Point
°C
Rel
Hum
%
Delta-T
°C
Wind Press
QNH
hPa
Press
MSL
hPa
Rain since
9am
mm
Dir  Spd
km/h
Gust
km/h
Spd
kts
Gust
kts
20/11:30pm 19.0 14.7 3.2 35 7.4 S 15 19 8 10 1014.7 1014.2 0.0
20/11:00pm 19.6 15.6 2.9 33 7.8 SW 13 15 7 8 1014.7 1014.2 0.0
20/10:30pm 20.3 16.3 3.1 32 8.1 SW 13 17 7 9 1014.5 1014.0 0.0
20/10:00pm 20.9 16.1 2.7 30 8.6 SW 17 20 9 11 1014.1 1013.6 0.0
20/09:30pm 21.4 17.3 2.2 28 9.0 SW 13 17 7 9 1013.6 1013.1 0.0
20/09:00pm 22.3 17.8 2.4 27 9.4 SW 15 17 8 9 1013.4 1012.9 0.0
20/08:30pm 23.1 19.0 2.0 25 10.0 WSW 13 15 7 8 1013.1 1012.6 0.0
20/08:00pm 24.1 19.2 2.3 24 10.4 SW 17 20 9 11 1013.1 1012.6 0.0
20/07:30pm 24.6 18.9 2.7 24 10.6 SW 22 28 12 15 1012.7 1012.2 0.0
20/07:00pm 24.8 19.4 2.3 23 10.8 SW 20 28 11 15 1012.5 1012.0 0.0
20/06:30pm 25.1 19.1 3.1 24 10.8 SW 24 32 13 17 1012.4 1011.9 0.0
20/06:00pm 26.3 20.3 3.5 23 11.3 SW 24 32 13 17 1012.5 1012.0 0.0
20/05:30pm 26.2 21.2 4.6 25 10.9 SSW 20 33 11 18 1012.4 1011.9 0.0
20/05:00pm 25.3 19.7 3.3 24 10.8 SW 22 32 12 17 1012.6 1012.1 0.0
20/04:30pm 26.1 20.4 5.1 26 10.7 SSW 24 41 13 22 1012.6 1012.1 0.0
20/04:00pm 25.1 19.8 4.8 27 10.3 SW 22 35 12 19 1012.7 1012.2 0.0
20/03:30pm 25.6 20.0 5.2 27 10.4 SSW 24 35 13 19 1013.0 1012.5 0.0
20/03:00pm 25.2 20.0 5.4 28 10.1 SW 22 33 12 18 1013.4 1012.9 0.0
20/02:30pm 25.2 19.7 5.9 29 9.9 SSW 24 37 13 20 1013.8 1013.3 0.0
20/02:00pm 24.0 18.6 6.3 32 9.1 SSW 24 33 13 18 1014.0 1013.5 0.0
20/01:30pm 24.1 18.4 6.8 33 9.0 SSW 26 39 14 21 1014.2 1013.7 0.0
20/01:00pm 22.8 17.2 7.0 36 8.2 SW 26 33 14 18 1014.6 1014.1 0.0
20/12:30pm 22.5 17.6 7.1 37 8.0 SSW 22 33 12 18 1014.8 1014.3 0.0
20/12:00pm 21.2 16.0 7.4 41 7.1 SSW 24 35 13 19 1015.1 1014.6 0.0
20/11:30am 20.1 15.9 8.1 46 6.2 SSW 20 33 11 18 1015.3 1014.8 0.0
20/11:00am 19.0 14.4 8.1 49 5.6 SSW 22 35 12 19 1015.4 1014.9 0.0
20/10:30am 18.8 14.2 8.2 50 5.5 S 22 32 12 17 1015.4 1014.9 0.0
20/10:00am 17.8 13.3 8.4 54 4.8 S 22 30 12 16 1015.3 1014.8 0.0
20/09:30am 17.1 12.2 8.3 56 4.5 SSW 24 30 13 16 1015.5 1015.0 0.0
20/09:00am 16.1 11.5 8.1 59 4.1 SSW 22 28 12 15 1015.3 1014.8 0.0
20/08:30am 14.8 10.6 8.3 65 3.3 SSW 20 26 11 14 1015.1 1014.6 0.0
20/08:00am 13.6 10.5 8.7 72 2.5 SW 15 20 8 11 1014.9 1014.4 0.0
20/07:30am 12.5 10.1 8.6 77 2.0 SW 11 15 6 8 1014.4 1013.9 0.0
20/07:00am 12.1 9.3 8.4 78 1.8 SW 13 15 7 8 1013.7 1013.2 0.0
20/06:30am 12.3 9.8 8.4 77 1.9 SW 11 13 6 7 1013.4 1012.9 0.0
20/06:00am 12.9 10.2 8.8 76 2.1 SW 13 15 7 8 1012.9 1012.4 0.0
20/05:30am 13.3 10.7 9.2 76 2.1 SSW 13 17 7 9 1012.6 1012.1 0.0
20/05:00am 13.7 10.7 9.4 75 2.2 SSW 15 19 8 10 1012.4 1011.9 0.0
20/04:30am 14.1 11.1 9.3 73 2.5 S 15 19 8 10 1012.1 1011.6 0.0
20/04:00am 14.7 11.4 9.5 71 2.7 S 17 22 9 12 1012.2 1011.7 0.0
20/03:30am 15.1 11.4 9.5 69 2.9 SSW 19 24 10 13 1012.6 1012.1 0.0
20/03:00am 15.6 11.4 9.7 68 3.1 SSW 22 26 12 14 1012.7 1012.2 0.0
20/02:30am 16.0 12.3 9.4 65 3.4 S 19 24 10 13 1012.6 1012.1 0.0
20/02:00am 16.4 12.5 9.3 63 3.7 S 20 26 11 14 1012.7 1012.2 0.0
20/01:30am 16.9 12.2 9.3 61 4.0 SSW 24 33 13 18 1012.8 1012.3 0.0
20/01:00am 17.6 12.5 9.2 58 4.4 SSW 26 32 14 17 1012.8 1012.3 0.0
20/12:30am 18.2 12.3 9.0 55 4.8 SSW 30 39 16 21 1012.8 1012.3 0.0
20/12:00am 18.8 13.3 9.0 53 5.1 SSW 28 37 15 20 1012.9 1012.4 0.0
 
Date/Time
EDT
Temp
°C
App
Temp
°C
Dew
Point
°C
Rel
Hum
%
Delta-T
°C
Wind Press
QNH
hPa
Press
MSL
hPa
Rain since
9am
mm
Dir  Spd
km/h
Gust
km/h
Spd
kts
Gust
kts
19/11:30pm 19.5 13.8 8.5 49 5.7 SSW 28 39 15 21 1012.6 1012.1 0.0
19/11:00pm 20.1 14.7 7.8 45 6.4 S 26 33 14 18 1012.6 1012.1 0.0
19/10:30pm 20.9 15.1 7.9 43 6.8 S 28 37 15 20 1012.5 1012.0 0.0
19/10:00pm 21.0 16.2 7.3 41 7.1 S 22 32 12 17 1012.5 1012.0 0.0
19/09:30pm 21.8 16.1 6.9 38 7.7 SSW 26 33 14 18 1012.2 1011.7 0.0
19/09:00pm 22.1 16.7 6.3 36 8.1 SSW 24 32 13 17 1011.6 1011.1 0.0
19/08:30pm 23.0 17.2 6.3 34 8.6 SSW 26 39 14 21 1011.3 1010.8 0.0
19/08:00pm 23.6 16.6 6.0 32 9.0 SSW 32 43 17 23 1010.7 1010.3 0.0
19/07:30pm 24.4 16.8 5.7 30 9.6 SSW 35 43 19 23 1010.3 1009.9 0.0
19/07:00pm 25.0 16.9 5.2 28 10.1 SSW 37 48 20 26 1010.0 1009.6 0.0
19/06:30pm 25.6 17.5 5.2 27 10.4 SSW 37 50 20 27 1009.7 1009.3 0.0
19/06:00pm 25.9 18.2 5.5 27 10.5 SW 35 46 19 25 1009.6 1009.2 0.0
19/05:34pm 26.4 18.6 4.8 25 11.0 SW 35 54 19 29 1009.5 1009.1 0.0
19/05:30pm 26.7 18.9 5.1 25 11.1 SW 35 48 19 26 1009.5 1009.1 0.0
19/05:00pm 26.5 18.6 4.3 24 11.2 SSW 35 54 19 29 1009.5 1009.1 0.0
19/04:38pm 26.5 19.0 4.3 24 11.2 SSW 33 57 18 31 1009.4 1009.0 0.0
19/04:30pm 26.4 18.9 4.2 24 11.2 SW 33 50 18 27 1009.5 1009.1 0.0
19/04:00pm 26.2 18.6 5.7 27 10.6 SSW 35 54 19 29 1009.6 1009.2 0.0

Other formats

Comma delimited format used in spreadsheet applications
http://www.bom.gov.au/fwo/IDN60801/IDN60801.94702.axf

JavaScript Object Notation format (JSON) in row-major order
http://www.bom.gov.au/fwo/IDN60801/IDN60801.94702.json

Data quality

Most of these data are generated automatically and are frequently updated. Quality checks on data are not normally performed. It is possible for incorrect values to appear. Refer to information at About Latest Weather Observations and please check the disclaimer before using these data.